• Join FlightAware (Why Join?)
  • Login
  • US Flag 
05:58AM EDT


 

Airport Tracker/Info


-or-


 

Live Flight TrackerFlight Track Log ✈ SWA2103 ✈ 04-May-2013 ✈ KBNA - KLGA

Flight Track Log - Related Links

Times and Time Zones

All times are in EDT time to prevent confusion due to time zone crossing. See the SWA2103 flight status page for this flight to view local times or setup timezone preferences in your user account.

Time Position Orientation Groundspeed Altitude Reporting Facility
EDT Latitude Longitude Course Direction KTS MPH feet Rate Location/Type
06:58PM 36.0833 -86.6833 180° South 172 198 2,100  Level Nashville TRACON
06:59PM 36.0500 -86.6333 129° Southeast 239 275 5,700 3,600 Climbing Nashville TRACON
07:00PM 36.0411 -86.5269 96° East 274 315 11,000 3,420 Climbing Memphis Center
07:01PM 36.0794 -86.4225 66° East 304 350 14,100 3,060 Climbing Memphis Center
07:02PM 36.1194 -86.3050 67° East 353 406 17,200 3,540 Climbing Memphis Center
07:03PM 36.1614 -86.1847 67° East 376 433 21,200 3,180 Climbing Memphis Center
07:06PM 36.2789 -85.8947 63° Northeast 410 472 27,900 2,580 Climbing Indianapolis Center
07:07PM 36.3233 -85.7717 66° East 422 486 29,900 2,160 Climbing Indianapolis Center
07:08PM 36.3792 -85.6061 67° East 431 496 32,400 1,560 Climbing Indianapolis Center
07:09PM 36.4264 -85.4639 68° East 442 509 33,100 240 Climbing Indianapolis Center
07:10PM 36.4753 -85.3211 67° East 445 512 33,000 -60 Descending Indianapolis Center
07:11PM 36.5217 -85.1797 68° East 441 507 33,000  Level Indianapolis Center
07:12PM 36.5686 -85.0389 67° East 438 504 33,000 780 Level Indianapolis Center
07:13PM 36.6156 -84.8956 68° East 444 511 34,600 1,620 Climbing Indianapolis Center
07:14PM 36.6628 -84.7508 68° East 451 519 36,300 1,380 Climbing Indianapolis Center
07:15PM 36.7106 -84.6047 68° East 455 524 37,500 1,020 Climbing Indianapolis Center
07:16PM 36.7586 -84.4547 68° East 473 544 38,400 720 Climbing Indianapolis Center
07:17PM 36.8114 -84.2972 67° East 490 564 39,000 240 Climbing Indianapolis Center
07:18PM 36.8611 -84.1397 68° East 491 565 39,000  Level Indianapolis Center
07:19PM 36.9200 -83.9572 68° East 488 562 39,000 960 Level Indianapolis Center
07:20PM 36.9692 -83.8056 68° East 475 547 41,000 960 Climbing Indianapolis Center
07:21PM 37.0158 -83.6572 68° East 459 528 41,000  Level Indianapolis Center
07:22PM 37.0617 -83.5094 69° East 456 525 41,000  Level Indianapolis Center
07:23PM 37.1086 -83.3639 68° East 450 518 41,000  Level Indianapolis Center
07:24PM 37.1556 -83.2164 68° East 451 519 41,000  Level Indianapolis Center
07:25PM 37.2006 -83.0678 69° East 452 520 41,000  Level Indianapolis Center
07:26PM 37.2461 -82.9211 69° East 451 519 41,000  Level Indianapolis Center
07:27PM 37.2917 -82.7736 69° East 451 519 41,000  Level Indianapolis Center
07:28PM 37.3369 -82.6269 69° East 449 517 41,000  Level Indianapolis Center
07:29PM 37.3819 -82.4797 69° East 449 517 41,000  Level Indianapolis Center
07:30PM 37.4256 -82.3317 70° East 450 518 41,000  Level Indianapolis Center
07:31PM 37.4706 -82.1850 69° East 449 517 41,000  Level Indianapolis Center
07:32PM 37.5144 -82.0353 70° East 452 520 41,000  Level Indianapolis Center
07:33PM 37.5592 -81.8872 69° East 452 520 41,000  Level Indianapolis Center
07:34PM 37.6106 -81.7128 70° East 454 522 41,000  Level Indianapolis Center
07:35PM 37.6542 -81.5636 70° East 453 521 41,000  Level Indianapolis Center
07:36PM 37.6983 -81.4086 70° East 455 524 41,000  Level Indianapolis Center
07:37PM 37.7139 -81.3439 73° East 454 522 41,000  Level Washington Center
07:38PM 37.7614 -81.1794 70° East 459 528 41,000  Level Washington Center
07:39PM 37.7872 -81.0261 78° East 452 520 41,000  Level Washington Center
07:40PM 37.7961 -80.8744 86° East 441 507 41,000  Level Washington Center
07:41PM 37.8069 -80.7200 85° East 441 507 41,000  Level Washington Center
07:42PM 37.8172 -80.5786 85° East 441 507 41,000  Level Washington Center
07:43PM 37.8256 -80.4242 86° East 441 507 41,000  Level Washington Center
07:44PM 37.8358 -80.2722 85° East 441 507 41,000  Level Washington Center
07:45PM 37.8458 -80.1178 85° East 441 507 41,000  Level Washington Center
07:46PM 37.8558 -79.9606 85° East 441 507 41,000  Level Washington Center
07:47PM 37.8661 -79.7900 86° East 441 507 41,000  Level Washington Center
07:48PM 37.8758 -79.6353 85° East 441 507 41,000  Level Washington Center
07:49PM 37.8869 -79.4808 85° East 441 507 41,000  Level Washington Center
07:50PM 37.8919 -79.3283 88° East 441 507 41,000  Level Washington Center
07:51PM 37.9008 -79.1736 86° East 441 507 41,000  Level Washington Center
07:52PM 37.9136 -79.0214 84° East 441 507 41,000  Level Washington Center
07:53PM 37.9322 -78.8828 80° East 441 507 41,000  Level Washington Center
07:54PM 37.9486 -78.7308 82° East 441 507 41,000  Level Washington Center
07:55PM 37.9694 -78.5761 80° East 441 507 41,000  Level Washington Center
07:56PM 37.9856 -78.4239 82° East 441 507 41,000  Level Washington Center
07:57PM 38.0061 -78.2561 81° East 448 516 41,000  Level Washington Center
07:58PM 38.0172 -78.1194 84° East 442 509 41,000  Level Washington Center
07:59PM 38.0244 -77.9747 86° East 435 501 41,000  Level Washington Center
08:00PM 38.0336 -77.8222 86° East 422 486 41,000  Level Washington Center
08:01PM 38.0428 -77.6694 86° East 422 486 41,000  Level Washington Center
08:02PM 38.0536 -77.5142 85° East 428 493 41,000  Level Washington Center
08:03PM 38.0850 -77.3672 75° East 428 493 41,000  Level Washington Center
08:04PM 38.1164 -77.2147 75° East 433 498 41,000  Level Washington Center
08:05PM 38.1497 -77.0625 74° East 438 504 41,000  Level Washington Center
08:06PM 38.1825 -76.9125 74° East 438 504 41,000  Level Washington Center
08:07PM 38.2133 -76.7597 76° East 438 504 41,000  Level Washington Center
08:08PM 38.2481 -76.6097 74° East 438 504 41,000  Level Washington Center
08:09PM 38.3431 -76.4839 46° Northeast 416 479 41,000  Level Washington Center
08:10PM 38.4333 -76.3789 42° Northeast 430 495 41,000 -480 Level Washington Center
08:11PM 38.5258 -76.2736 42° Northeast 436 502 40,100 -1,800 Descending Washington Center
08:12PM 38.6181 -76.1656 42° Northeast 436 502 37,500 -2,640 Descending Washington Center
08:13PM 38.7039 -76.0731 40° Northeast 444 511 34,900 -3,000 Descending Washington Center
08:14PM 38.7961 -75.9644 43° Northeast 444 511 31,400 -3,180 Descending Washington Center
08:15PM 38.8858 -75.8583 43° Northeast 439 505 28,600 -2,220 Descending Washington Center
08:16PM 38.9736 -75.7597 41° Northeast 432 497 27,000 -840 Descending Washington Center
08:17PM 39.0656 -75.6744 36° Northeast 421 484 27,000  Level Washington Center
08:18PM 39.1572 -75.5889 36° Northeast 409 471 27,000  Level Washington Center
08:19PM 39.2489 -75.5006 37° Northeast 409 471 27,000  Level Washington Center
08:20PM 39.3447 -75.4172 34° Northeast 404 465 27,000  Level Washington Center
08:21PM 39.4383 -75.3336 35° Northeast 404 465 27,000 -60 Level Washington Center
08:22PM 39.5317 -75.2497 35° Northeast 404 465 26,900 -1,380 Descending Washington Center
08:23PM 39.6211 -75.1631 37° Northeast 404 465 24,400 -2,580 Descending Washington Center
08:24PM 39.7186 -75.0789 34° Northeast 395 455 21,700 -2,460 Descending Washington Center
08:25PM 39.7933 -75.0136 34° Northeast 367 422 19,600 -2,100 Descending Washington Center
08:26PM 39.8825 -74.9344 34° Northeast 357 411 17,500 -2,280 Descending Washington Center
08:27PM 39.9569 -74.8497 41° Northeast 356 410 15,100 -2,400 Descending Washington Center
08:28PM 40.0169 -74.7625 48° Northeast 335 386 12,800 -2,280 Descending Washington Center
08:28PM 40.0500 -74.7167 47° Northeast 325 374 11,800 -2,100 Descending New York TRACON
08:29PM 40.1000 -74.6500 46° Northeast 317 365 10,000 -960 Descending New York TRACON
08:30PM 40.1500 -74.5667 52° Northeast 279 321 10,000  Level New York TRACON
08:31PM 40.2167 -74.5167 30° Northeast 289 333 10,000  Level New York TRACON
08:32PM 40.2833 -74.4333 44° Northeast 301 346 10,000  Level New York TRACON
08:33PM 40.3500 -74.3500 44° Northeast 301 346 10,000  Level New York TRACON
08:34PM 40.4167 -74.2833 37° Northeast 300 345 10,000 -120 Level New York TRACON
08:35PM 40.4667 -74.2167 45° Northeast 288 331 9,800 -960 Descending New York TRACON
08:36PM 40.5333 -74.1500 37° Northeast 263 303 8,100 -1,620 Descending New York TRACON
08:37PM 40.5833 -74.1000 37° Northeast 253 291 6,600 -1,620 Descending New York TRACON
08:38PM 40.6333 -74.0333 45° Northeast 243 280 5,100 -1,380 Descending New York TRACON
08:39PM 40.7000 -74.0333 360° North 237 273 3,900 -1,080 Descending New York TRACON
08:40PM 40.7500 -74.0167 14° North 221 254 3,000 -480 Descending New York TRACON
08:41PM 40.8000 -73.9833 27° Northeast 209 241 3,000 -60 Level New York TRACON
08:42PM 40.8500 -73.9500 27° Northeast 192 221 2,900 -540 Descending New York TRACON
08:43PM 40.8667 -73.8833 72° East 185 213 1,900 -840 Descending New York TRACON
08:44PM 40.8500 -73.8500 123° Southeast 128 147 1,300 -540 Descending New York TRACON
08:45PM 40.8167 -73.8333 159° South 128 147 800 -600 Descending New York TRACON
08:46PM 40.8000 -73.8667 237° Southwest 123 142 200 -720 Descending New York TRACON